Terminal Aerodrome Forecast
Issued by NWS Sterling, VA

Current Version | Previous Version | Text Only | Print | Product List | Glossary Off
Versions: 1 2 3 4 5 6 7 8 9 10 11 12 13 14 15 16 17 18 19 20 21 22 23 24 25 26 27

783
FTUS41 KLWX 192058 AAA
TAFIAD
TAF AMD
KIAD 192058Z 1921/2024 VRB15KT P6SM VCTS BKN050CB
     FM200100 33004KT P6SM SCT050 BKN070
     FM200600 01009KT P6SM SCT050 BKN120
     FM201600 07006KT P6SM SCT020 BKN035
     FM202200 11008KT P6SM BKN035=

USA.gov is the U.S. government's official web portal to all federal, state and local government web resources and services.